Time;durP1;ratioP1;P1;durP2;ratioP2;P2;SDS_P1;SDS_P2;PMS_P1;PMS_P2;Temp;Humidity;BMP_temperature;BMP_pressure;BME280_temperature;BME280_humidity;BME280_pressure;Samples;Min_cycle;Max_cycle;Signal;HPM_P1;HPM_P2
2024/04/05 00:01:05;;;;;;;;;;;;;;;16.81;53.89;100936.34;5065810;28;1019;-47
2024/04/05 00:03:31;;;;;;;;;;;;;;;16.51;54.53;100943.41;5065576;28;1969;-47
2024/04/05 00:05:57;;;;;;;;;;;;;;;16.41;54.60;100938.72;5065177;28;1171;-49
2024/04/05 00:08:24;;;;;;;;;;;;;;;16.21;54.61;100935.88;5065424;28;1563;-50
2024/04/05 00:10:50;;;;;;;;;;;;;;;16.13;54.85;100926.25;5075710;28;1031;-50
2024/04/05 00:13:16;;;;;;;;;;;;;;;16.39;54.93;100940.88;5076104;28;1039;-51
2024/04/05 00:15:41;;;;;;;;;;;;;;;17.83;51.74;100934.75;5062309;28;1088;-50
2024/04/05 00:18:07;;;;;;;;;;;;;;;17.18;53.26;100929.00;5073436;28;1652;-49
2024/04/05 00:20:32;;;;;;;;;;;;;;;16.68;54.33;100939.63;5064578;28;1114;-50
2024/04/05 00:22:58;;;;;;;;;;;;;;;16.51;54.63;100935.19;5073893;28;1075;-48
2024/04/05 00:25:23;;;;;;;;;;;;;;;16.31;54.76;100933.16;5076103;28;1968;-47
2024/04/05 00:27:49;;;;;;;;;;;;;;;16.22;55.04;100935.59;5066023;28;1841;-49
2024/04/05 00:30:14;;;;;;;;;;;;;;;17.66;52.31;100943.31;5064813;28;1068;-50
2024/04/05 00:32:40;;;;;;;;;;;;;;;17.22;53.05;100943.84;5073502;28;1004;-47
2024/04/05 00:35:06;;;;;;;;;;;;;;;16.74;53.89;100947.59;5075924;28;1132;-48
2024/04/05 00:37:31;;;;;;;;;;;;;;;16.49;54.58;100944.78;5075986;28;1035;-50
2024/04/05 00:39:57;;;;;;;;;;;;;;;16.32;54.57;100943.03;5072506;28;1010;-49
2024/04/05 00:42:23;;;;;;;;;;;;;;;16.68;54.67;100937.69;5071829;28;1085;-52
2024/04/05 00:44:48;;;;;;;;;;;;;;;17.72;51.82;100928.44;5055725;28;1973;-49
2024/04/05 00:47:14;;;;;;;;;;;;;;;16.83;53.75;100939.66;5069205;28;1047;-52
2024/04/05 00:49:39;;;;;;;;;;;;;;;16.58;54.26;100937.69;5066424;28;1040;-51
2024/04/05 00:52:05;;;;;;;;;;;;;;;16.41;54.43;100940.59;5071914;28;1042;-52
2024/04/05 00:54:32;;;;;;;;;;;;;;;16.19;54.73;100940.81;5057611;28;1036;-51
2024/04/05 00:56:58;;;;;;;;;;;;;;;16.50;54.76;100951.91;5061839;28;1098;-44
2024/04/05 00:59:24;;;;;;;;;;;;;;;17.94;51.47;100943.84;5050942;28;2655;-49
2024/04/05 01:01:49;;;;;;;;;;;;;;;17.15;53.25;100935.06;5061784;28;1051;-49
2024/04/05 01:04:15;;;;;;;;;;;;;;;16.73;53.90;100945.97;5060421;28;1977;-48
2024/04/05 01:06:41;;;;;;;;;;;;;;;16.47;54.36;100945.03;5059310;28;1119;-51
2024/04/05 01:09:07;;;;;;;;;;;;;;;16.35;54.63;100952.66;5057695;28;1219;-50
2024/04/05 01:11:32;;;;;;;;;;;;;;;16.17;54.67;100953.94;5048533;28;1107;-48
2024/04/05 01:13:58;;;;;;;;;;;;;;;17.08;53.94;100952.66;5077206;28;995;-46
2024/04/05 01:16:24;;;;;;;;;;;;;;;17.83;51.68;100944.94;5073090;28;1186;-50
2024/04/05 01:18:49;;;;;;;;;;;;;;;16.91;53.63;100950.16;5069659;28;1454;-46
2024/04/05 01:21:15;;;;;;;;;;;;;;;16.55;54.45;100955.50;5043903;28;1175;-47
2024/04/05 01:23:41;;;;;;;;;;;;;;;16.37;54.76;100950.50;5051767;28;1975;-48
2024/04/05 01:26:06;;;;;;;;;;;;;;;16.28;54.54;100958.41;5065796;28;1086;-49
2024/04/05 01:28:32;;;;;;;;;;;;;;;16.47;54.98;100955.22;5063089;28;1428;-51
2024/04/05 01:30:58;;;;;;;;;;;;;;;17.89;51.56;100955.66;5076027;28;1104;-50
2024/04/05 01:33:23;;;;;;;;;;;;;;;17.17;53.09;100957.59;5079287;28;1154;-48
2024/04/05 01:35:49;;;;;;;;;;;;;;;16.66;54.38;100961.03;5074622;28;956;-49
2024/04/05 01:38:14;;;;;;;;;;;;;;;16.41;54.76;100948.84;5078729;28;1114;-49
2024/04/05 01:40:40;;;;;;;;;;;;;;;16.21;54.75;100958.63;5065539;28;1026;-49
2024/04/05 01:43:05;;;;;;;;;;;;;;;17.39;52.86;100962.81;5078510;28;1071;-50
2024/04/05 01:45:31;;;;;;;;;;;;;;;17.40;52.38;100954.31;5078211;28;1909;-49
2024/04/05 01:47:57;;;;;;;;;;;;;;;16.75;54.05;100954.72;5078668;28;1000;-49
2024/04/05 01:50:22;;;;;;;;;;;;;;;16.54;54.14;100958.53;5078618;28;1120;-50
2024/04/05 01:52:48;;;;;;;;;;;;;;;16.39;54.54;100945.56;5071549;28;924;-49
2024/04/05 01:55:14;;;;;;;;;;;;;;;16.24;54.79;100943.56;5078524;28;1094;-48
2024/04/05 01:57:39;;;;;;;;;;;;;;;17.74;52.09;100951.00;5069178;28;2414;-49
2024/04/05 02:00:05;;;;;;;;;;;;;;;17.34;52.88;100960.91;5071718;28;1008;-47
2024/04/05 02:02:37;;;;;;;;;;;;;;;16.74;54.08;100953.06;5068468;28;1140;-50
2024/04/05 02:05:03;;;;;;;;;;;;;;;16.53;54.26;100951.38;5077322;28;1905;-48
2024/04/05 02:07:28;;;;;;;;;;;;;;;16.28;54.78;100950.16;5067967;28;1115;-50
2024/04/05 02:09:54;;;;;;;;;;;;;;;16.16;54.76;100946.81;5074575;28;1028;-49
2024/04/05 02:12:20;;;;;;;;;;;;;;;16.49;54.80;100950.25;5078520;28;1027;-47
2024/04/05 02:14:46;;;;;;;;;;;;;;;17.89;51.61;100955.66;5077578;28;991;-46
2024/04/05 02:17:11;;;;;;;;;;;;;;;17.22;52.77;100952.94;5069792;28;899;-50
2024/04/05 02:19:37;;;;;;;;;;;;;;;16.73;54.07;100959.69;5064597;28;1502;-49
2024/04/05 02:22:02;;;;;;;;;;;;;;;16.43;54.52;100955.72;5068602;28;1186;-51
2024/04/05 02:24:28;;;;;;;;;;;;;;;16.30;54.42;100952.63;5070606;28;1909;-45
2024/04/05 02:26:53;;;;;;;;;;;;;;;16.13;54.58;100958.31;5067698;28;1021;-48
2024/04/05 02:29:19;;;;;;;;;;;;;;;16.75;54.32;100956.66;5072808;28;1912;-50
2024/04/05 02:31:45;;;;;;;;;;;;;;;18.01;51.31;100963.63;5067891;28;1096;-51
2024/04/05 02:34:10;;;;;;;;;;;;;;;17.07;53.31;100953.75;5074831;28;1028;-46
2024/04/05 02:36:36;;;;;;;;;;;;;;;16.69;54.21;100961.31;5068386;28;1036;-49
2024/04/05 02:39:06;;;;;;;;;;;;;;;16.41;54.45;100960.66;5077290;28;1062;-47
2024/04/05 02:41:32;;;;;;;;;;;;;;;16.30;54.26;100958.97;5068596;28;910;-50
2024/04/05 02:43:57;;;;;;;;;;;;;;;16.21;54.69;100966.03;5059947;28;1913;-51
2024/04/05 02:46:23;;;;;;;;;;;;;;;17.66;52.28;100978.25;5067970;28;1075;-45
2024/04/05 02:48:51;;;;;;;;;;;;;;;17.44;52.55;100979.31;5077638;28;1023;-48
2024/04/05 02:51:18;;;;;;;;;;;;;;;16.78;54.04;100969.84;5067135;28;1193;-48
2024/04/05 02:53:44;;;;;;;;;;;;;;;16.53;54.51;100981.56;5058641;28;984;-50
2024/04/05 02:56:10;;;;;;;;;;;;;;;16.36;54.71;100973.53;5077150;28;1090;-51
2024/04/05 02:58:35;;;;;;;;;;;;;;;16.99;54.08;100975.44;5060116;28;1849;-47
2024/04/05 03:01:01;;;;;;;;;;;;;;;18.05;50.97;100972.97;5067855;28;1227;-49
2024/04/05 03:03:27;;;;;;;;;;;;;;;17.12;53.23;100976.81;5072901;28;1909;-47
2024/04/05 03:05:52;;;;;;;;;;;;;;;16.75;54.08;100984.94;5077023;28;1047;-50
2024/04/05 03:08:18;;;;;;;;;;;;;;;16.51;54.24;100975.50;5068673;28;1046;-47
2024/04/05 03:10:43;;;;;;;;;;;;;;;16.36;54.50;100985.34;5066881;28;1003;-49
2024/04/05 03:13:09;;;;;;;;;;;;;;;16.17;54.71;100975.91;5070569;28;1012;-49
2024/04/05 03:15:35;;;;;;;;;;;;;;;17.65;52.41;100987.59;5057743;28;1164;-50
2024/04/05 03:18:02;;;;;;;;;;;;;;;17.43;52.51;100985.91;5075890;28;1442;-49
2024/04/05 03:20:28;;;;;;;;;;;;;;;16.83;54.04;100988.25;5077180;28;1031;-48
2024/04/05 03:22:54;;;;;;;;;;;;;;;16.57;54.25;100988.19;5059668;28;1190;-50
2024/04/05 03:25:19;;;;;;;;;;;;;;;16.32;54.38;100995.19;5067332;28;1975;-50
2024/04/05 03:27:45;;;;;;;;;;;;;;;17.38;52.89;100995.00;5061330;28;1744;-45
2024/04/05 03:30:11;;;;;;;;;;;;;;;17.71;51.68;100992.81;5049566;28;1300;-50
2024/04/05 03:32:37;;;;;;;;;;;;;;;16.94;53.53;100995.47;5072576;28;1122;-50
2024/04/05 03:35:05;;;;;;;;;;;;;;;16.66;53.98;101000.31;5067181;28;1028;-49
2024/04/05 03:37:31;;;;;;;;;;;;;;;16.39;54.25;101000.44;5076465;28;1038;-50
2024/04/05 03:39:57;;;;;;;;;;;;;;;16.24;54.50;100998.44;5067511;28;1047;-50
2024/04/05 03:42:22;;;;;;;;;;;;;;;16.64;54.56;101007.97;5076160;28;999;-51
2024/04/05 03:44:48;;;;;;;;;;;;;;;18.01;51.27;101002.16;5076388;28;1974;-49
2024/04/05 03:47:13;;;;;;;;;;;;;;;17.14;53.28;101011.19;5063310;28;1178;-48
2024/04/05 03:49:39;;;;;;;;;;;;;;;16.65;54.21;101022.50;5065423;28;1058;-48
2024/04/05 03:52:05;;;;;;;;;;;;;;;16.49;54.10;101022.44;5070056;28;1079;-45
2024/04/05 03:54:31;;;;;;;;;;;;;;;16.35;54.28;101033.06;5056095;28;1127;-49
2024/04/05 03:56:57;;;;;;;;;;;;;;;17.22;53.40;101037.28;5073199;28;1211;-50
2024/04/05 03:59:22;;;;;;;;;;;;;;;17.70;51.82;101029.66;5069710;28;2497;-55
2024/04/05 04:01:51;;;;;;;;;;;;;;;16.93;53.72;101035.03;5062762;28;1211;-45
2024/04/05 04:04:16;;;;;;;;;;;;;;;16.65;53.98;101042.56;5072266;28;1905;-52
2024/04/05 04:06:42;;;;;;;;;;;;;;;16.52;53.76;101040.31;5073443;28;1051;-48
2024/04/05 04:09:11;;;;;;;;;;;;;;;17.74;51.89;101046.41;5067610;28;1223;-50
2024/04/05 04:11:36;;;;;;;;;;;;;;;16.72;53.03;101042.34;5061940;28;1082;-52
2024/04/05 04:14:02;;;;;;;;;;;;;;;16.33;52.08;101051.72;5064955;28;1087;-48
2024/04/05 04:16:28;;;;;;;;;;;;;;;16.22;50.77;101050.00;5068883;28;996;-50
2024/04/05 04:18:53;;;;;;;;;;;;;;;17.23;52.71;101059.00;5055818;28;1482;-51
2024/04/05 04:21:21;;;;;;;;;;;;;;;16.45;52.17;101062.50;5073662;28;1095;-52
2024/04/05 04:23:47;;;;;;;;;;;;;;;17.03;52.58;101070.75;5064048;28;1918;-48
2024/04/05 04:26:12;;;;;;;;;;;;;;;16.91;52.56;101072.91;5069471;28;980;-51
2024/04/05 04:28:38;;;;;;;;;;;;;;;16.54;51.51;101076.56;5060988;28;2434;-51
2024/04/05 04:31:15;;;;;;;;;;;;;;;17.87;51.58;101067.88;5071140;28;1108;-47
2024/04/05 04:33:40;;;;;;;;;;;;;;;16.81;52.16;101072.84;5068885;28;1163;-49
2024/04/05 04:36:06;;;;;;;;;;;;;;;16.57;50.70;101068.59;5075054;28;1094;-50
2024/04/05 04:38:32;;;;;;;;;;;;;;;16.43;49.66;101079.22;5075637;28;1149;-49
2024/04/05 04:40:57;;;;;;;;;;;;;;;17.48;51.65;101092.34;5074547;28;1034;-51
2024/04/05 04:43:23;;;;;;;;;;;;;;;16.67;51.71;101089.78;5075434;28;1074;-49
2024/04/05 04:45:48;;;;;;;;;;;;;;;16.45;50.35;101075.41;5075075;28;1969;-53
2024/04/05 04:48:14;;;;;;;;;;;;;;;17.32;51.48;101078.56;5076173;28;996;-51
2024/04/05 04:50:39;;;;;;;;;;;;;;;16.67;51.06;101080.75;5073548;28;1117;-50
2024/04/05 04:53:05;;;;;;;;;;;;;;;16.53;50.01;101088.63;5064505;28;1115;-49
2024/04/05 04:55:31;;;;;;;;;;;;;;;16.33;48.98;101100.31;5052526;28;2303;-50
2024/04/05 04:57:56;;;;;;;;;;;;;;;16.40;48.93;101093.50;5069207;28;1962;-50
2024/04/05 05:00:22;;;;;;;;;;;;;;;16.85;50.49;101101.44;5068952;28;1024;-49
2024/04/05 05:02:47;;;;;;;;;;;;;;;16.52;49.61;101097.94;5058084;28;1341;-48
2024/04/05 05:05:14;;;;;;;;;;;;;;;17.31;50.21;101098.88;5065624;28;1975;-48
2024/04/05 05:07:39;;;;;;;;;;;;;;;16.85;50.46;101090.44;5066340;28;1097;-52
2024/04/05 05:10:06;;;;;;;;;;;;;;;16.54;49.55;101098.53;5065889;28;1195;-51
2024/04/05 05:12:32;;;;;;;;;;;;;;;16.41;48.68;101102.53;5059050;28;2524;-46
2024/04/05 05:14:58;;;;;;;;;;;;;;;16.17;48.33;101107.59;5066423;28;1803;-53
2024/04/05 05:17:23;;;;;;;;;;;;;;;17.29;49.64;101112.06;5066083;28;2108;-50
2024/04/05 05:19:49;;;;;;;;;;;;;;;16.77;50.33;101106.34;5057433;28;1829;-50
2024/04/05 05:22:14;;;;;;;;;;;;;;;16.67;50.21;101106.28;5057376;28;2151;-53
2024/04/05 05:24:40;;;;;;;;;;;;;;;17.70;49.97;101116.84;5058247;28;1905;-49
2024/04/05 05:27:06;;;;;;;;;;;;;;;16.90;50.09;101115.19;5066677;28;1258;-50
2024/04/05 05:29:31;;;;;;;;;;;;;;;16.55;49.38;101105.66;5058970;28;1026;-49
2024/04/05 05:31:57;;;;;;;;;;;;;;;16.40;48.57;101112.69;5060997;28;892;-51
2024/04/05 05:34:23;;;;;;;;;;;;;;;17.42;49.84;101114.31;5065209;28;1123;-52
2024/04/05 05:36:49;;;;;;;;;;;;;;;16.74;50.08;101115.09;5071270;28;1119;-51
2024/04/05 05:39:14;;;;;;;;;;;;;;;16.53;49.00;101122.38;5071343;28;1040;-53
2024/04/05 05:41:40;;;;;;;;;;;;;;;16.41;48.80;101125.34;5067018;28;912;-49
2024/04/05 05:44:05;;;;;;;;;;;;;;;17.22;49.67;101125.22;5058516;28;1983;-49
2024/04/05 05:46:31;;;;;;;;;;;;;;;16.70;49.38;101133.19;5070743;28;1127;-49
2024/04/05 05:48:57;;;;;;;;;;;;;;;17.15;49.60;101121.91;5058415;28;1001;-47
2024/04/05 05:51:23;;;;;;;;;;;;;;;17.24;49.95;101120.31;5055925;28;987;-45
2024/04/05 05:53:48;;;;;;;;;;;;;;;16.82;49.56;101123.94;5058154;28;2675;-47
2024/04/05 05:56:14;;;;;;;;;;;;;;;16.58;48.73;101116.13;5064430;28;1027;-46
2024/04/05 05:58:39;;;;;;;;;;;;;;;16.52;48.22;101114.41;5070818;28;950;-45
2024/04/05 06:01:05;;;;;;;;;;;;;;;16.41;47.56;101129.97;5066685;28;1340;-45
2024/04/05 06:03:32;;;;;;;;;;;;;;;16.24;47.35;101124.66;5058979;28;1234;-49
2024/04/05 06:05:57;;;;;;;;;;;;;;;16.16;47.26;101128.72;5048120;28;1953;-49
2024/04/05 06:08:23;;;;;;;;;;;;;;;16.83;48.03;101122.84;5057643;28;1303;-47
2024/04/05 06:10:55;;;;;;;;;;;;;;;16.81;49.51;101125.03;5055282;28;1356;-45
2024/04/05 06:13:21;;;;;;;;;;;;;;;16.41;49.00;101111.63;5075760;28;1096;-47
2024/04/05 06:15:57;;;;;;;;;;;;;;;17.29;49.31;101109.31;5056746;28;1324;-53
2024/04/05 06:18:26;;;;;;;;;;;;;;;16.84;49.63;101116.25;5077348;28;859;-49
2024/04/05 06:20:52;;;;;;;;;;;;;;;16.54;49.04;101123.22;5057937;28;1020;-46
2024/04/05 06:23:18;;;;;;;;;;;;;;;17.03;49.32;101120.22;5057645;28;1788;-49
2024/04/05 06:25:50;;;;;;;;;;;;;;;17.03;50.03;101135.88;5057378;28;1978;-49
2024/04/05 06:28:15;;;;;;;;;;;;;;;16.69;49.17;101126.06;5044657;28;1016;-45
2024/04/05 06:30:41;;;;;;;;;;;;;;;16.50;48.44;101128.41;5057637;28;1068;-47
2024/04/05 06:33:07;;;;;;;;;;;;;;;17.22;49.39;101127.97;5063620;28;1068;-46
2024/04/05 06:35:32;;;;;;;;;;;;;;;16.70;49.17;101141.44;5051089;28;1088;-45
2024/04/05 06:37:58;;;;;;;;;;;;;;;16.47;48.73;101128.94;5055922;28;1396;-47
2024/04/05 06:40:24;;;;;;;;;;;;;;;16.47;47.75;101139.13;5057143;28;1219;-50
2024/04/05 06:42:50;;;;;;;;;;;;;;;17.45;48.74;101155.00;5047494;28;1242;-49
2024/04/05 06:45:15;;;;;;;;;;;;;;;16.75;49.24;101152.44;5039447;28;1918;-46
2024/04/05 06:47:41;;;;;;;;;;;;;;;16.63;48.56;101142.78;5038412;28;1124;-48
2024/04/05 06:50:07;;;;;;;;;;;;;;;16.56;48.32;101143.84;5037540;28;1047;-50
2024/04/05 06:52:33;;;;;;;;;;;;;;;17.13;49.01;101148.84;5056383;28;2024;-47
2024/04/05 06:54:59;;;;;;;;;;;;;;;16.62;48.84;101147.44;5057304;28;841;-49
2024/04/05 06:57:24;;;;;;;;;;;;;;;16.39;48.50;101151.41;5057143;28;1151;-50
2024/04/05 06:59:50;;;;;;;;;;;;;;;16.30;48.05;101155.69;5052609;28;1289;-50
2024/04/05 07:02:19;;;;;;;;;;;;;;;17.43;48.61;101157.22;5056528;28;1684;-47
2024/04/05 07:04:45;;;;;;;;;;;;;;;16.64;49.09;101160.91;5056711;28;1906;-44
2024/04/05 07:07:11;;;;;;;;;;;;;;;16.41;48.49;101168.41;5056538;28;841;-47
2024/04/05 07:09:36;;;;;;;;;;;;;;;16.31;48.12;101168.34;5056172;28;1474;-45
2024/04/05 07:12:04;;;;;;;;;;;;;;;16.77;48.12;101171.41;5056243;28;992;-46
2024/04/05 07:14:30;;;;;;;;;;;;;;;17.14;48.79;101164.22;5056422;28;961;-47
2024/04/05 07:16:55;;;;;;;;;;;;;;;16.82;49.56;101173.38;5053134;28;1270;-48
2024/04/05 07:19:21;;;;;;;;;;;;;;;18.42;48.11;101164.50;5053173;28;1000;-50
2024/04/05 07:21:47;;;;;;;;;;;;;;;17.25;49.84;101174.16;5056254;28;1408;-50
2024/04/05 07:24:13;;;;;;;;;;;;;;;16.93;49.40;101170.44;5048491;28;1914;-46
2024/04/05 07:26:38;;;;;;;;;;;;;;;16.65;48.65;101173.53;5056967;28;1295;-49
2024/04/05 07:29:05;;;;;;;;;;;;;;;16.56;48.24;101173.19;5057063;28;1072;-50
2024/04/05 07:31:33;;;;;;;;;;;;;;;16.47;47.76;101172.06;5056661;28;864;-46
2024/04/05 07:33:58;;;;;;;;;;;;;;;17.41;48.60;101170.38;5044874;28;1102;-50
2024/04/05 07:36:25;;;;;;;;;;;;;;;16.74;48.91;101170.00;5051174;28;1250;-51
2024/04/05 07:38:51;;;;;;;;;;;;;;;16.57;48.54;101163.88;5057012;28;1120;-48
2024/04/05 07:41:17;;;;;;;;;;;;;;;16.50;47.55;101168.78;5051387;28;1131;-47
2024/04/05 07:43:42;;;;;;;;;;;;;;;16.35;47.35;101164.81;5056443;28;1918;-51
2024/04/05 07:46:08;;;;;;;;;;;;;;;16.52;47.73;101163.84;5056471;28;1147;-47
2024/04/05 07:48:34;;;;;;;;;;;;;;;17.20;48.68;101152.16;5056157;28;1086;-50
2024/04/05 07:51:00;;;;;;;;;;;;;;;16.69;48.72;101156.28;5055857;28;983;-50
2024/04/05 07:53:25;;;;;;;;;;;;;;;16.46;48.12;101159.41;5043069;28;1140;-53
2024/04/05 07:55:51;;;;;;;;;;;;;;;17.60;48.15;101159.72;5055086;28;1115;-46
2024/04/05 07:58:17;;;;;;;;;;;;;;;16.80;49.23;101164.56;5052108;28;1131;-48
2024/04/05 08:00:43;;;;;;;;;;;;;;;16.61;48.60;101151.28;5048741;28;1118;-50
2024/04/05 08:03:08;;;;;;;;;;;;;;;16.50;47.97;101160.53;5042895;28;1134;-48
2024/04/05 08:05:34;;;;;;;;;;;;;;;16.75;47.94;101157.13;5042048;28;1910;-52
2024/04/05 08:08:00;;;;;;;;;;;;;;;17.30;48.69;101156.88;5055697;28;924;-48
2024/04/05 08:10:26;;;;;;;;;;;;;;;16.68;48.90;101154.63;5055935;28;1054;-51
2024/04/05 08:12:51;;;;;;;;;;;;;;;16.80;48.91;101151.66;5056112;28;1182;-47
2024/04/05 08:15:17;;;;;;;;;;;;;;;17.18;49.20;101159.84;5055897;28;1056;-48
2024/04/05 08:17:43;;;;;;;;;;;;;;;16.76;49.06;101151.38;5055721;28;1044;-50
2024/04/05 08:20:08;;;;;;;;;;;;;;;16.54;48.35;101156.19;5055723;28;888;-51
2024/04/05 08:22:34;;;;;;;;;;;;;;;16.51;47.66;101152.03;5055824;28;1115;-53
2024/04/05 08:25:00;;;;;;;;;;;;;;;16.49;47.47;101161.63;5055512;28;1905;-51
2024/04/05 08:27:26;;;;;;;;;;;;;;;16.34;47.04;101157.69;5048318;28;1293;-51
2024/04/05 08:29:52;;;;;;;;;;;;;;;17.39;48.17;101150.59;5068145;28;1111;-49
2024/04/05 08:32:18;;;;;;;;;;;;;;;16.76;48.74;101156.06;5055295;28;910;-49
2024/04/05 08:34:43;;;;;;;;;;;;;;;17.71;48.50;101166.09;5055784;28;1071;-51
2024/04/05 08:37:09;;;;;;;;;;;;;;;17.88;48.94;101156.72;5072022;28;1142;-50
2024/04/05 08:39:35;;;;;;;;;;;;;;;17.03;49.68;101161.44;5061415;28;1158;-51
2024/04/05 08:42:10;;;;;;;;;;;;;;;16.93;48.72;101166.88;5055765;28;1171;-52
2024/04/05 08:44:35;;;;;;;;;;;;;;;16.75;48.24;101162.63;5050813;28;1992;-49
2024/04/05 08:47:01;;;;;;;;;;;;;;;16.65;47.77;101163.38;5039791;28;1340;-49
2024/04/05 08:49:27;;;;;;;;;;;;;;;17.66;48.70;101168.81;5052998;28;1276;-50
2024/04/05 08:51:52;;;;;;;;;;;;;;;16.93;49.61;101170.44;5053889;28;1092;-52
2024/04/05 08:54:19;;;;;;;;;;;;;;;16.75;48.63;101168.13;5056324;28;1293;-52
2024/04/05 08:56:48;;;;;;;;;;;;;;;16.57;48.48;101163.88;5066019;28;1389;-51
2024/04/05 08:59:13;;;;;;;;;;;;;;;17.20;48.69;101169.47;5025193;28;1147;-51
2024/04/05 09:01:39;;;;;;;;;;;;;;;17.04;48.78;101165.84;5050845;28;1234;-51
2024/04/05 09:04:05;;;;;;;;;;;;;;;16.78;48.39;101162.09;5037638;28;1914;-49
2024/04/05 09:06:31;;;;;;;;;;;;;;;16.62;48.17;101160.34;5026269;28;1325;-49
2024/04/05 09:08:59;;;;;;;;;;;;;;;16.47;47.95;101159.13;5037649;28;1044;-50
2024/04/05 09:11:25;;;;;;;;;;;;;;;16.43;47.52;101152.53;5038768;28;1111;-52
2024/04/05 09:13:54;;;;;;;;;;;;;;;17.68;48.08;101158.34;5044604;28;1302;-47
2024/04/05 09:16:26;;;;;;;;;;;;;;;16.87;49.10;101156.91;5041385;28;1277;-51
2024/04/05 09:18:51;;;;;;;;;;;;;;;16.65;48.68;101157.06;5049014;28;1306;-52
2024/04/05 09:21:20;;;;;;;;;;;;;;;16.47;48.53;101161.06;5055657;28;1119;-47
2024/04/05 09:23:46;;;;;;;;;;;;;;;16.43;47.68;101155.28;5055350;28;1910;-46
2024/04/05 09:26:18;;;;;;;;;;;;;;;16.69;48.04;101159.03;5054704;28;996;-48
2024/04/05 09:28:44;;;;;;;;;;;;;;;17.15;49.06;101154.88;5055191;28;1135;-53
2024/04/05 09:31:10;;;;;;;;;;;;;;;16.77;48.93;101149.44;5045353;28;1104;-48
2024/04/05 09:33:36;;;;;;;;;;;;;;;16.64;48.15;101155.41;5060210;28;1008;-49
2024/04/05 09:36:02;;;;;;;;;;;;;;;17.36;48.29;101164.88;5047056;28;1329;-50
2024/04/05 09:38:29;;;;;;;;;;;;;;;16.84;49.25;101162.94;5040849;28;1282;-44
2024/04/05 09:40:55;;;;;;;;;;;;;;;16.67;48.49;101157.63;5039225;28;1163;-48
2024/04/05 09:43:20;;;;;;;;;;;;;;;16.57;48.06;101161.13;5039959;28;1360;-50
2024/04/05 09:45:49;;;;;;;;;;;;;;;16.50;47.72;101160.53;5040411;28;1913;-50
2024/04/05 09:48:16;;;;;;;;;;;;;;;16.41;47.48;101146.44;5052763;28;1076;-51
2024/04/05 09:50:42;;;;;;;;;;;;;;;16.49;47.26;101161.63;5039675;28;1036;-52
2024/04/05 09:53:08;;;;;;;;;;;;;;;17.03;48.31;101169.66;5025955;28;1114;-46
2024/04/05 09:55:36;;;;;;;;;;;;;;;16.58;48.71;101162.78;5033380;28;1052;-46
2024/04/05 09:58:02;;;;;;;;;;;;;;;16.43;48.10;101164.31;5054213;28;1088;-49
2024/04/05 10:00:28;;;;;;;;;;;;;;;17.82;47.67;101168.84;5057136;28;1043;-47
2024/04/05 10:02:57;;;;;;;;;;;;;;;16.94;49.05;101171.25;5040799;28;1111;-51
2024/04/05 10:05:26;;;;;;;;;;;;;;;16.74;48.62;101170.00;5040655;28;1987;-50
2024/04/05 10:07:51;;;;;;;;;;;;;;;16.64;48.63;101172.72;5066535;28;1384;-51
2024/04/05 10:10:26;;;;;;;;;;;;;;;17.08;48.84;101166.97;5043849;28;1372;-44
2024/04/05 10:12:52;;;;;;;;;;;;;;;16.69;48.82;101167.25;5053439;28;1040;-47
2024/04/05 10:15:26;;;;;;;;;;;;;;;16.55;48.49;101166.88;5053836;28;1079;-51
2024/04/05 10:17:54;;;;;;;;;;;;;;;16.44;47.96;101170.66;5054057;28;1337;-52
2024/04/05 10:20:21;;;;;;;;;;;;;;;16.62;47.70;101169.41;5057984;28;904;-51
2024/04/05 10:22:56;;;;;;;;;;;;;;;17.78;47.80;101166.63;5057693;28;1051;-51
2024/04/05 10:25:21;;;;;;;;;;;;;;;16.92;49.09;101166.03;5057817;28;1913;-47
2024/04/05 10:27:51;;;;;;;;;;;;;;;16.74;48.70;101160.97;5057604;28;1071;-49
2024/04/05 10:30:17;;;;;;;;;;;;;;;16.68;48.13;101165.59;5056322;28;996;-49
2024/04/05 10:32:42;;;;;;;;;;;;;;;16.57;47.77;101164.69;5063751;28;1012;-50
2024/04/05 10:35:08;;;;;;;;;;;;;;;17.34;48.00;101164.31;5057994;28;1186;-47
2024/04/05 10:37:35;;;;;;;;;;;;;;;16.90;48.62;101164.66;5057819;28;1003;-49
2024/04/05 10:40:10;;;;;;;;;;;;;;;16.77;48.46;101164.03;5055459;28;1163;-48
2024/04/05 10:42:36;;;;;;;;;;;;;;;17.44;48.66;101161.59;5057672;28;1036;-49
2024/04/05 10:45:05;;;;;;;;;;;;;;;16.96;48.73;101163.59;5057047;28;1914;-47
2024/04/05 10:47:31;;;;;;;;;;;;;;;16.74;48.68;101160.97;5048611;28;1047;-48
2024/04/05 10:50:06;;;;;;;;;;;;;;;16.64;48.02;101160.91;5057155;28;1173;-47
2024/04/05 10:52:36;;;;;;;;;;;;;;;16.53;47.84;101155.31;5056760;28;987;-53
2024/04/05 10:55:09;;;;;;;;;;;;;;;16.50;47.17;101153.13;5057218;28;1276;-49
2024/04/05 10:57:35;;;;;;;;;;;;;;;16.44;47.12;101145.94;5047654;28;1060;-51
2024/04/05 11:00:03;;;;;;;;;;;;;;;16.42;46.75;101151.72;5056741;28;1032;-51
2024/04/05 11:02:29;;;;;;;;;;;;;;;17.55;47.67;101145.13;5057321;28;1206;-49
2024/04/05 11:05:09;;;;;;;;;;;;;;;16.87;48.96;101148.66;5054334;28;1914;-49
2024/04/05 11:07:34;;;;;;;;;;;;;;;16.65;48.15;101152.41;5048530;28;1095;-46
2024/04/05 11:10:00;;;;;;;;;;;;;;;16.40;48.20;101142.06;5056716;28;1201;-47
2024/04/05 11:12:25;;;;;;;;;;;;;;;16.41;47.64;101146.44;5057189;28;1103;-50
2024/04/05 11:15:01;;;;;;;;;;;;;;;16.31;47.44;101147.19;5056886;28;1100;-51
2024/04/05 11:17:27;;;;;;;;;;;;;;;16.34;46.80;101156.84;5048962;28;1262;-57
2024/04/05 11:19:54;;;;;;;;;;;;;;;17.48;47.59;101152.81;5044938;28;1012;-54
2024/04/05 11:22:19;;;;;;;;;;;;;;;16.81;48.44;101158.00;5042650;28;1348;-49
2024/04/05 11:24:48;;;;;;;;;;;;;;;16.57;47.98;101161.94;5056548;28;1906;-52
2024/04/05 11:27:19;;;;;;;;;;;;;;;16.54;47.38;101158.91;5068188;28;1059;-48
2024/04/05 11:29:44;;;;;;;;;;;;;;;16.33;47.25;101161.50;5058980;28;992;-49
2024/04/05 11:32:10;;;;;;;;;;;;;;;17.03;47.82;101163.38;5068260;28;1159;-51
2024/04/05 11:34:35;;;;;;;;;;;;;;;16.96;48.35;101163.59;5048854;28;1110;-51
2024/04/05 11:37:01;;;;;;;;;;;;;;;16.60;48.43;101166.09;5049361;28;1289;-45
2024/04/05 11:39:27;;;;;;;;;;;;;;;16.52;47.95;101163.84;5037035;28;1103;-44
2024/04/05 11:41:54;;;;;;;;;;;;;;;17.15;48.07;101163.13;5056507;28;1114;-48
2024/04/05 11:44:20;;;;;;;;;;;;;;;17.08;48.60;101161.47;5055946;28;1909;-49
2024/04/05 11:46:47;;;;;;;;;;;;;;;16.71;48.70;101159.56;5055972;28;1008;-48
2024/04/05 11:49:13;;;;;;;;;;;;;;;16.57;48.23;101161.94;5056435;28;1079;-47
2024/04/05 11:51:38;;;;;;;;;;;;;;;17.55;48.38;101169.88;5056202;28;1212;-44
2024/04/05 11:54:04;;;;;;;;;;;;;;;16.95;48.93;101156.44;5056088;28;1032;-49
2024/04/05 11:56:30;;;;;;;;;;;;;;;16.70;48.31;101168.88;5051250;28;1080;-50
2024/04/05 11:58:55;;;;;;;;;;;;;;;16.61;47.88;101165.00;5048856;28;1289;-46
2024/04/05 12:01:21;;;;;;;;;;;;;;;17.06;48.19;101152.66;5055694;28;1140;-49
2024/04/05 12:03:47;;;;;;;;;;;;;;;17.20;48.31;101160.41;5040501;28;1262;-49
2024/04/05 12:06:14;;;;;;;;;;;;;;;16.88;48.38;101153.94;5049366;28;1099;-44
2024/04/05 12:08:40;;;;;;;;;;;;;;;16.68;48.08;101162.03;5056231;28;1072;-48
2024/04/05 12:11:06;;;;;;;;;;;;;;;16.57;47.55;101156.47;5055966;28;1027;-46
2024/04/05 12:13:31;;;;;;;;;;;;;;;16.52;46.99;101147.38;5056137;28;1182;-43
2024/04/05 12:15:58;;;;;;;;;;;;;;;17.47;47.57;101145.66;5055871;28;1107;-44
2024/04/05 12:18:25;;;;;;;;;;;;;;;16.87;48.48;101148.66;5045894;28;1234;-50
2024/04/05 12:20:51;;;;;;;;;;;;;;;16.84;48.46;101150.03;5055543;28;1072;-46
2024/04/05 12:23:18;;;;;;;;;;;;;;;17.18;48.54;101144.19;5061057;28;1640;-49
2024/04/05 12:25:53;;;;;;;;;;;;;;;16.87;48.49;101143.19;5045606;28;1906;-51
2024/04/05 12:28:19;;;;;;;;;;;;;;;16.75;47.78;101146.97;5053888;28;1148;-45
2024/04/05 12:30:44;;;;;;;;;;;;;;;16.67;47.49;101143.91;5049061;28;1005;-48
2024/04/05 12:33:10;;;;;;;;;;;;;;;16.54;47.45;101150.69;5060403;28;1100;-48
2024/04/05 12:35:36;;;;;;;;;;;;;;;17.76;47.53;101149.56;5047252;28;1123;-50
2024/04/05 12:38:01;;;;;;;;;;;;;;;16.88;48.47;101153.06;5048184;28;1171;-47
2024/04/05 12:40:39;;;;;;;;;;;;;;;16.77;48.04;101146.69;5049477;28;1261;-52
2024/04/05 12:43:06;;;;;;;;;;;;;;;16.64;47.58;101150.75;5051057;28;1000;-50